createdAt,value
2018-07-24T00:00:37.723Z,4.63
2018-07-24T00:03:06.164Z,4.13
2018-07-24T00:05:34.533Z,4.53
2018-07-24T00:08:03.135Z,4.53
2018-07-24T00:10:31.440Z,4.97
2018-07-24T00:12:59.799Z,5.13
2018-07-24T00:15:28.150Z,5.13
2018-07-24T00:17:56.494Z,4.73
2018-07-24T00:20:24.931Z,5.23
2018-07-24T00:22:53.395Z,5.10
2018-07-24T00:25:21.728Z,4.87
2018-07-24T00:27:50.186Z,5.37
2018-07-24T00:30:18.518Z,5.00
2018-07-24T00:32:46.868Z,4.63
2018-07-24T00:35:14.885Z,5.30
2018-07-24T00:37:43.199Z,4.90
2018-07-24T00:40:11.514Z,4.87
2018-07-24T00:42:39.879Z,4.80
2018-07-24T00:45:08.336Z,4.77
2018-07-24T00:47:36.746Z,4.83
2018-07-24T00:50:04.976Z,4.83
2018-07-24T00:52:34.280Z,5.50
2018-07-24T00:55:02.648Z,5.43
2018-07-24T00:57:30.978Z,5.27
2018-07-24T00:59:59.368Z,5.70
2018-07-24T01:02:27.663Z,5.53
2018-07-24T01:04:56.029Z,5.20
2018-07-24T01:07:24.476Z,5.33
2018-07-24T01:09:52.792Z,5.03
2018-07-24T01:12:21.125Z,5.00
2018-07-24T01:14:49.436Z,5.47
2018-07-24T01:17:17.852Z,5.73
2018-07-24T01:19:46.201Z,4.97
2018-07-24T01:22:14.288Z,5.07
2018-07-24T01:24:43.239Z,5.03
2018-07-24T01:27:11.611Z,5.27
2018-07-24T01:29:39.917Z,5.57
2018-07-24T01:32:08.311Z,5.50
2018-07-24T01:34:36.658Z,5.50
2018-07-24T01:37:05.016Z,5.30
2018-07-24T01:39:33.327Z,5.47
2018-07-24T01:42:01.679Z,5.57
2018-07-24T01:44:30.064Z,5.70
2018-07-24T01:46:58.428Z,5.20
2018-07-24T01:49:26.817Z,5.77
2018-07-24T01:51:55.132Z,5.13
2018-07-24T01:54:23.448Z,5.07
2018-07-24T01:56:51.819Z,5.07
2018-07-24T01:59:20.467Z,4.73
2018-07-24T02:01:48.854Z,5.30
2018-07-24T02:04:17.199Z,5.10
2018-07-24T02:06:45.592Z,4.67
2018-07-24T02:09:13.939Z,4.80
2018-07-24T02:11:42.264Z,4.53
2018-07-24T02:14:10.584Z,5.67
2018-07-24T02:16:38.912Z,5.20
2018-07-24T02:19:07.274Z,5.03
2018-07-24T02:21:35.649Z,4.90
2018-07-24T02:24:03.719Z,4.80
2018-07-24T02:26:32.055Z,4.63
2018-07-24T02:29:00.425Z,4.83
2018-07-24T02:31:28.812Z,4.77
2018-07-24T02:33:57.161Z,4.80
2018-07-24T02:36:25.473Z,4.90
2018-07-24T02:38:53.817Z,5.33
2018-07-24T02:41:22.228Z,4.50
2018-07-24T02:43:50.564Z,5.00
2018-07-24T02:46:19.113Z,5.77
2018-07-24T02:48:47.474Z,4.70
2018-07-24T02:51:15.794Z,4.67
2018-07-24T02:53:44.135Z,4.97
2018-07-24T02:56:12.457Z,5.33
2018-07-24T02:58:40.781Z,4.67
2018-07-24T03:01:09.120Z,5.17
2018-07-24T03:03:37.194Z,5.30
2018-07-24T03:06:05.824Z,5.10
2018-07-24T03:08:34.168Z,4.97
2018-07-24T03:11:06.299Z,4.93
2018-07-24T03:13:34.653Z,4.67
2018-07-24T03:16:03.100Z,4.60
2018-07-24T03:18:31.447Z,5.00
2018-07-24T03:20:59.825Z,4.70
2018-07-24T03:23:28.145Z,4.70
2018-07-24T03:25:56.444Z,4.67
2018-07-24T03:28:24.772Z,5.17
2018-07-24T03:30:53.078Z,5.47
2018-07-24T03:33:21.424Z,4.60
2018-07-24T03:35:49.828Z,5.03
2018-07-24T03:38:18.241Z,4.87
2018-07-24T03:40:46.598Z,5.23
2018-07-24T03:43:16.309Z,5.00
2018-07-24T03:45:44.391Z,5.00
2018-07-24T03:48:13.653Z,4.83
2018-07-24T03:50:42.087Z,5.43
2018-07-24T03:53:10.434Z,4.77
2018-07-24T03:55:38.792Z,4.90
2018-07-24T03:58:07.466Z,5.30
2018-07-24T04:00:35.828Z,5.40
2018-07-24T04:03:04.277Z,4.90
2018-07-24T04:05:32.336Z,5.13
2018-07-24T04:08:00.676Z,5.03
2018-07-24T04:10:29.123Z,5.03
2018-07-24T04:12:57.471Z,5.30
2018-07-24T04:15:25.827Z,5.53
2018-07-24T04:17:54.164Z,5.50
2018-07-24T04:20:22.239Z,5.13
2018-07-24T04:22:50.272Z,5.20
2018-07-24T04:25:18.612Z,5.57
2018-07-24T04:27:46.955Z,5.63
2018-07-24T04:30:15.369Z,5.40
2018-07-24T04:32:43.744Z,5.53
2018-07-24T04:35:12.479Z,5.60
2018-07-24T04:37:40.844Z,5.80
2018-07-24T04:40:09.364Z,5.20
2018-07-24T04:42:37.733Z,5.17
2018-07-24T04:45:06.800Z,5.53
2018-07-24T04:47:35.236Z,5.40
2018-07-24T04:50:03.680Z,5.47
2018-07-24T04:52:32.052Z,5.63
2018-07-24T04:55:00.577Z,5.80
2018-07-24T04:57:28.911Z,5.13
2018-07-24T04:59:57.249Z,5.50
2018-07-24T05:02:25.339Z,5.33
2018-07-24T05:04:53.709Z,5.60
2018-07-24T05:07:22.043Z,6.07
2018-07-24T05:09:50.338Z,5.53
2018-07-24T05:12:18.705Z,5.47
2018-07-24T05:14:47.015Z,5.03
2018-07-24T05:17:15.356Z,5.60
2018-07-24T05:19:43.737Z,5.80
2018-07-24T05:22:12.098Z,5.87
2018-07-24T05:24:40.447Z,5.67
2018-07-24T05:27:08.801Z,5.33
2018-07-24T05:29:37.160Z,5.43
2018-07-24T05:32:05.757Z,5.43
2018-07-24T05:34:34.124Z,5.17
2018-07-24T05:37:02.452Z,5.27
2018-07-24T05:39:30.836Z,5.47
2018-07-24T05:41:59.200Z,5.57
2018-07-24T05:44:27.559Z,5.70
2018-07-24T05:46:55.966Z,5.23
2018-07-24T05:49:24.102Z,5.10
2018-07-24T05:51:52.496Z,5.07
2018-07-24T05:54:20.867Z,5.50
2018-07-24T05:56:49.211Z,5.70
2018-07-24T05:59:17.566Z,6.30
2018-07-24T06:01:45.971Z,5.73
2018-07-24T06:04:14.285Z,5.53
2018-07-24T06:06:42.772Z,5.90
2018-07-24T06:09:11.101Z,5.87
2018-07-24T06:11:39.432Z,5.30
2018-07-24T06:14:45.035Z,5.73
2018-07-24T06:17:13.689Z,5.87
2018-07-24T06:19:42.071Z,5.80
2018-07-24T06:22:10.479Z,5.23
2018-07-24T06:24:38.543Z,5.67
2018-07-24T06:27:06.980Z,5.60
2018-07-24T06:29:35.372Z,5.60
2018-07-24T06:32:04.044Z,5.97
2018-07-24T06:34:32.353Z,6.00
2018-07-24T06:37:00.722Z,5.53
2018-07-24T06:39:28.747Z,5.07
2018-07-24T06:41:57.123Z,5.67
2018-07-24T06:44:25.504Z,5.40
2018-07-24T06:46:53.853Z,5.40
2018-07-24T06:49:22.218Z,5.80
2018-07-24T06:51:50.644Z,6.70
2018-07-24T06:54:18.964Z,6.10
2018-07-24T06:56:47.301Z,5.90
2018-07-24T06:59:15.674Z,5.77
2018-07-24T07:01:44.090Z,5.87
2018-07-24T07:04:12.452Z,6.60
2018-07-24T07:06:40.934Z,6.13
2018-07-24T07:09:09.384Z,6.20
2018-07-24T07:11:37.774Z,6.20
2018-07-24T07:14:18.766Z,6.07
2018-07-24T07:16:47.222Z,6.47
2018-07-24T07:19:15.576Z,6.00
2018-07-24T07:21:43.905Z,6.00
2018-07-24T07:24:12.298Z,6.23
2018-07-24T07:26:40.711Z,5.77
2018-07-24T07:29:09.076Z,6.00
2018-07-24T07:31:37.413Z,6.60
2018-07-24T07:34:05.874Z,6.07
2018-07-24T07:36:34.230Z,5.90
2018-07-24T07:39:02.856Z,6.10
2018-07-24T07:41:31.233Z,6.03
2018-07-24T07:43:59.669Z,5.90
2018-07-24T07:46:27.933Z,6.40
2018-07-24T07:48:55.997Z,6.30
2018-07-24T07:51:24.255Z,6.77
2018-07-24T07:53:52.351Z,7.23
2018-07-24T07:56:20.680Z,6.73
2018-07-24T07:58:49.078Z,6.43
2018-07-24T08:01:17.459Z,6.13
2018-07-24T08:03:45.768Z,6.20
2018-07-24T08:06:14.100Z,6.87
2018-07-24T08:08:42.679Z,6.80
2018-07-24T08:11:11.145Z,5.40
2018-07-24T08:13:39.494Z,6.03
2018-07-24T08:16:07.848Z,6.00
2018-07-24T08:18:36.220Z,6.10
2018-07-24T08:21:04.588Z,5.90
2018-07-24T08:23:32.987Z,6.03
2018-07-24T08:26:01.365Z,6.33
2018-07-24T08:28:29.750Z,5.80
2018-07-24T08:30:58.270Z,5.67
2018-07-24T08:33:26.659Z,5.73
2018-07-24T08:35:55.028Z,5.60
2018-07-24T08:38:23.385Z,6.07
2018-07-24T08:40:51.740Z,6.00
2018-07-24T08:43:20.092Z,6.90
2018-07-24T08:45:48.468Z,6.50
2018-07-24T08:48:18.485Z,6.03
2018-07-24T08:50:46.840Z,6.27
2018-07-24T08:53:17.508Z,6.03
2018-07-24T08:55:46.191Z,6.00
2018-07-24T08:58:16.313Z,5.83
2018-07-24T09:00:44.726Z,5.70
2018-07-24T09:03:13.210Z,5.90
2018-07-24T09:05:41.230Z,6.40
2018-07-24T09:08:09.597Z,5.93
2018-07-24T09:10:37.998Z,6.60
2018-07-24T09:13:06.545Z,5.90
2018-07-24T09:15:34.910Z,6.20
2018-07-24T09:18:03.253Z,6.30
2018-07-24T09:20:31.591Z,6.70
2018-07-24T09:22:59.900Z,5.97
2018-07-24T09:25:28.284Z,6.20
2018-07-24T09:27:56.654Z,6.40
2018-07-24T09:30:25.121Z,6.10
2018-07-24T09:32:53.511Z,6.17
2018-07-24T09:35:21.901Z,6.20
2018-07-24T09:37:50.275Z,5.83
2018-07-24T09:40:18.688Z,5.50
2018-07-24T09:42:47.043Z,6.07
2018-07-24T09:45:15.401Z,5.50
2018-07-24T09:47:43.783Z,5.30
2018-07-24T09:50:12.471Z,5.63
2018-07-24T09:52:40.802Z,5.60
2018-07-24T09:55:09.295Z,5.60
2018-07-24T09:57:37.644Z,5.80
2018-07-24T10:00:07.493Z,5.23
2018-07-24T10:02:36.020Z,5.87
2018-07-24T10:05:04.516Z,5.80
2018-07-24T10:07:33.003Z,5.42
2018-07-24T10:10:01.366Z,5.40
2018-07-24T10:12:29.755Z,5.30
2018-07-24T10:15:36.237Z,5.58
2018-07-24T10:18:04.599Z,5.03
2018-07-24T10:20:33.036Z,5.05
2018-07-24T10:23:01.348Z,5.47
2018-07-24T10:25:29.701Z,5.30
2018-07-24T10:27:58.038Z,5.67
2018-07-24T10:30:26.389Z,5.25
2018-07-24T10:32:54.782Z,5.28
2018-07-24T10:35:23.106Z,5.30
2018-07-24T10:37:51.416Z,5.17
2018-07-24T10:40:19.773Z,5.30
2018-07-24T10:42:47.847Z,4.70
2018-07-24T10:45:15.966Z,5.37
2018-07-24T10:47:44.291Z,4.90
2018-07-24T10:50:13.029Z,5.42
2018-07-24T10:52:41.449Z,5.58
2018-07-24T10:55:09.860Z,5.60
2018-07-24T10:57:38.228Z,5.08
2018-07-24T11:00:06.676Z,4.75
2018-07-24T11:02:35.100Z,5.37
2018-07-24T11:05:03.621Z,5.92
2018-07-24T11:07:32.013Z,5.33
2018-07-24T11:10:00.328Z,5.00
2018-07-24T11:12:28.702Z,4.85
2018-07-24T11:15:46.089Z,4.60
2018-07-24T11:18:16.073Z,4.53
2018-07-24T11:20:44.476Z,4.40
2018-07-24T11:23:13.051Z,5.62
2018-07-24T11:25:41.271Z,5.65
2018-07-24T11:28:09.685Z,5.08
2018-07-24T11:30:38.012Z,5.03
2018-07-24T11:33:06.518Z,5.00
2018-07-24T11:35:34.871Z,4.95
2018-07-24T11:38:03.195Z,4.65
2018-07-24T11:40:31.551Z,4.40
2018-07-24T11:42:59.930Z,5.37
2018-07-24T11:45:28.303Z,5.25
2018-07-24T11:47:56.543Z,5.33
2018-07-24T11:50:24.893Z,5.25
2018-07-24T11:52:53.261Z,5.47
2018-07-24T11:55:21.636Z,5.53
2018-07-24T11:57:50.016Z,5.75
2018-07-24T12:00:18.387Z,5.37
2018-07-24T12:02:46.779Z,5.42
2018-07-24T12:05:15.425Z,5.00
2018-07-24T12:07:43.803Z,4.90
2018-07-24T12:10:12.191Z,5.37
2018-07-24T12:12:40.604Z,5.28
2018-07-24T12:18:26.219Z,5.37
2018-07-24T12:20:54.559Z,5.37
2018-07-24T12:23:22.997Z,5.25
2018-07-24T12:25:51.400Z,5.28
2018-07-24T12:28:19.744Z,4.85
2018-07-24T12:30:48.121Z,5.12
2018-07-24T12:33:18.044Z,4.95
2018-07-24T12:35:46.395Z,5.00
2018-07-24T12:38:16.388Z,4.50
2018-07-24T12:40:44.728Z,5.05
2018-07-24T12:43:13.099Z,4.62
2018-07-24T12:45:41.444Z,4.65
2018-07-24T12:48:09.818Z,4.67
2018-07-24T12:50:38.285Z,4.78
2018-07-24T12:53:06.675Z,4.90
2018-07-24T12:55:35.057Z,4.85
2018-07-24T12:58:03.414Z,4.92
2018-07-24T13:00:31.827Z,5.05
2018-07-24T13:02:59.847Z,4.47
2018-07-24T13:05:28.211Z,4.55
2018-07-24T13:07:56.572Z,4.92
2018-07-24T13:10:25.279Z,4.85
2018-07-24T13:12:53.681Z,4.35
2018-07-24T13:18:39.784Z,5.30
2018-07-24T13:21:08.149Z,4.47
2018-07-24T13:23:36.510Z,5.12
2018-07-24T13:26:05.038Z,4.80
2018-07-24T13:28:33.424Z,4.83
2018-07-24T13:31:01.892Z,4.50
2018-07-24T13:33:30.320Z,4.40
2018-07-24T13:35:58.711Z,4.40
2018-07-24T13:38:27.060Z,4.80
2018-07-24T13:40:55.419Z,5.28
2018-07-24T13:43:23.845Z,4.90
2018-07-24T13:45:52.268Z,4.42
2018-07-24T13:48:20.621Z,4.47
2018-07-24T13:50:48.981Z,3.83
2018-07-24T13:53:18.294Z,3.72
2018-07-24T13:55:46.634Z,3.72
2018-07-24T13:58:16.012Z,3.70
2018-07-24T14:00:44.509Z,3.72
2018-07-24T14:03:12.895Z,3.87
2018-07-24T14:05:41.410Z,3.77
2018-07-24T14:08:09.623Z,3.12
2018-07-24T14:10:37.780Z,3.08
2018-07-24T14:13:06.387Z,3.30
2018-07-24T14:16:22.982Z,2.92
2018-07-24T14:18:51.368Z,3.08
2018-07-24T14:21:19.866Z,3.45
2018-07-24T14:23:48.533Z,3.22
2018-07-24T14:26:16.926Z,3.52
2018-07-24T14:28:45.283Z,3.70
2018-07-24T14:31:13.718Z,3.30
2018-07-24T14:33:42.064Z,3.60
2018-07-24T14:36:10.471Z,3.27
2018-07-24T14:38:38.883Z,3.20
2018-07-24T14:41:07.201Z,3.20
2018-07-24T14:43:35.588Z,3.42
2018-07-24T14:46:03.671Z,3.58
2018-07-24T14:48:32.513Z,3.55
2018-07-24T14:51:00.857Z,3.87
2018-07-24T14:53:29.195Z,3.12
2018-07-24T14:55:57.589Z,3.50
2018-07-24T14:58:26.007Z,3.83
2018-07-24T15:00:54.317Z,3.72
2018-07-24T15:03:22.702Z,3.20
2018-07-24T15:05:51.040Z,3.20
2018-07-24T15:08:19.722Z,3.60
2018-07-24T15:10:48.168Z,2.95
2018-07-24T15:13:17.782Z,3.25
2018-07-24T15:16:32.575Z,3.70
2018-07-24T15:19:00.897Z,2.30
2018-07-24T15:21:29.175Z,2.77
2018-07-24T15:23:57.516Z,3.17
2018-07-24T15:26:25.848Z,3.10
2018-07-24T15:29:00.607Z,2.60
2018-07-24T15:31:28.944Z,2.67
2018-07-24T15:33:57.301Z,2.60
2018-07-24T15:36:25.722Z,2.10
2018-07-24T15:38:54.175Z,2.50
2018-07-24T15:41:22.450Z,2.42
2018-07-24T15:43:50.798Z,2.40
2018-07-24T15:46:19.155Z,2.40
2018-07-24T15:48:47.522Z,2.15
2018-07-24T15:51:15.928Z,2.35
2018-07-24T15:53:44.294Z,2.70
2018-07-24T15:56:12.650Z,2.70
2018-07-24T15:58:41.042Z,2.58
2018-07-24T16:01:09.400Z,2.45
2018-07-24T16:03:37.821Z,2.70
2018-07-24T16:06:06.256Z,2.60
2018-07-24T16:08:34.715Z,2.80
2018-07-24T16:11:10.425Z,2.40
2018-07-24T16:13:38.873Z,2.65
2018-07-24T16:16:47.665Z,2.92
2018-07-24T16:19:16.119Z,2.90
2018-07-24T16:21:44.606Z,2.80
2018-07-24T16:24:13.213Z,2.50
2018-07-24T16:26:41.866Z,2.87
2018-07-24T16:29:10.217Z,2.27
2018-07-24T16:31:38.937Z,2.72
2018-07-24T16:34:07.624Z,2.35
2018-07-24T16:36:36.271Z,2.55
2018-07-24T16:39:08.403Z,2.65
2018-07-24T16:41:37.039Z,2.40
2018-07-24T16:44:05.953Z,2.50
2018-07-24T16:46:34.989Z,2.45
2018-07-24T16:49:04.090Z,2.42
2018-07-24T16:51:33.182Z,2.33
2018-07-24T16:54:02.251Z,2.30
2018-07-24T16:56:31.452Z,2.83
2018-07-24T16:59:00.568Z,2.50
2018-07-24T17:01:29.643Z,2.40
2018-07-24T17:03:58.759Z,2.52
2018-07-24T17:06:27.843Z,2.25
2018-07-24T17:08:56.940Z,2.20
2018-07-24T17:11:26.126Z,2.60
2018-07-24T17:13:55.222Z,2.50
2018-07-24T17:16:59.047Z,2.30
2018-07-24T17:19:28.048Z,2.37
2018-07-24T17:21:57.058Z,2.27
2018-07-24T17:24:26.069Z,2.42
2018-07-24T17:26:55.122Z,2.42
2018-07-24T17:29:24.286Z,2.50
2018-07-24T17:31:53.036Z,3.08
2018-07-24T17:34:21.720Z,3.10
2018-07-24T17:36:50.389Z,2.95
2018-07-24T17:39:19.098Z,3.12
2018-07-24T17:41:47.693Z,2.60
2018-07-24T17:44:16.343Z,2.70
2018-07-24T17:46:44.949Z,2.70
2018-07-24T17:49:13.435Z,2.62
2018-07-24T17:51:41.876Z,2.52
2018-07-24T17:54:10.311Z,2.60
2018-07-24T17:56:39.025Z,2.60
2018-07-24T17:59:07.393Z,2.83
2018-07-24T18:01:42.510Z,2.40
2018-07-24T18:04:11.107Z,2.60
2018-07-24T18:06:39.810Z,2.70
2018-07-24T18:09:11.236Z,2.58
2018-07-24T18:11:40.416Z,3.20
2018-07-24T18:14:35.208Z,2.75
2018-07-24T18:17:11.120Z,3.00
2018-07-24T18:19:40.177Z,2.65
2018-07-24T18:22:09.069Z,3.17
2018-07-24T18:24:37.951Z,2.85
2018-07-24T18:27:06.621Z,2.87
2018-07-24T18:29:39.844Z,2.95
2018-07-24T18:32:12.970Z,2.90
2018-07-24T18:34:46.208Z,3.05
2018-07-24T18:37:21.053Z,2.55
2018-07-24T18:39:54.446Z,2.70
2018-07-24T18:42:27.908Z,2.73
2018-07-24T18:45:01.995Z,2.72
2018-07-24T18:47:35.463Z,3.30
2018-07-24T18:50:09.131Z,2.85
2018-07-24T18:52:41.981Z,3.25
2018-07-24T18:55:15.459Z,3.40
2018-07-24T18:57:49.427Z,5.93
2018-07-24T19:00:18.289Z,8.50
2018-07-24T19:02:47.024Z,7.40
2018-07-24T19:05:15.632Z,6.20
2018-07-24T19:07:44.367Z,5.60
2018-07-24T19:10:13.206Z,4.50
2018-07-24T19:12:42.051Z,3.53
2018-07-24T19:18:29.789Z,3.30
2018-07-24T19:20:59.132Z,3.02
2018-07-24T19:23:28.060Z,2.95
2018-07-24T19:25:59.549Z,3.10
2018-07-24T19:28:33.560Z,3.20
2018-07-24T19:31:08.054Z,3.10
2018-07-24T19:33:41.953Z,3.30
2018-07-24T19:36:15.951Z,3.40
2018-07-24T19:38:49.832Z,3.27
2018-07-24T19:41:23.599Z,3.03
2018-07-24T19:43:52.728Z,2.77
2018-07-24T19:46:21.845Z,3.43
2018-07-24T19:48:50.827Z,2.90
2018-07-24T19:51:19.902Z,3.20
2018-07-24T19:53:49.031Z,3.03
2018-07-24T19:56:18.112Z,3.00
2018-07-24T19:58:47.271Z,3.03
2018-07-24T20:01:16.469Z,3.40
2018-07-24T20:03:45.567Z,3.13
2018-07-24T20:06:14.668Z,3.37
2018-07-24T20:08:43.819Z,3.40
2018-07-24T20:11:12.946Z,3.17
2018-07-24T20:13:42.101Z,3.27
2018-07-24T20:19:51.797Z,3.20
2018-07-24T20:22:20.923Z,3.03
2018-07-24T20:24:56.032Z,3.17
2018-07-24T20:30:50.332Z,3.20
2018-07-24T20:33:26.555Z,3.27
2018-07-24T20:36:00.403Z,3.37
2018-07-24T20:38:34.226Z,3.33
2018-07-24T20:41:08.188Z,3.20
2018-07-24T20:43:37.440Z,3.47
2018-07-24T20:46:06.556Z,3.10
2018-07-24T20:48:35.646Z,3.60
2018-07-24T20:51:04.629Z,3.33
2018-07-24T20:53:33.583Z,3.10
2018-07-24T20:56:02.669Z,3.50
2018-07-24T20:58:31.539Z,3.23
2018-07-24T21:01:00.305Z,3.33
2018-07-24T21:03:29.253Z,3.13
2018-07-24T21:05:57.640Z,3.63
2018-07-24T21:08:26.115Z,3.63
2018-07-24T21:10:54.620Z,3.80
2018-07-24T21:13:22.960Z,3.33
2018-07-24T21:19:12.767Z,3.30
2018-07-24T21:21:41.156Z,3.37
2018-07-24T21:24:09.236Z,3.40
2018-07-24T21:26:37.612Z,2.97
2018-07-24T21:29:06.015Z,3.40
2018-07-24T21:31:34.332Z,3.47
2018-07-24T21:34:02.663Z,3.33
2018-07-24T21:36:30.972Z,3.50
2018-07-24T21:38:59.312Z,3.33
2018-07-24T21:41:27.598Z,3.30
2018-07-24T21:43:55.919Z,3.37
2018-07-24T21:46:24.256Z,3.60
2018-07-24T21:48:52.554Z,3.07
2018-07-24T21:51:21.021Z,3.40
2018-07-24T21:53:49.357Z,3.47
2018-07-24T21:56:17.653Z,2.73
2018-07-24T21:58:46.025Z,3.40
2018-07-24T22:01:14.665Z,3.30
2018-07-24T22:03:43.202Z,2.93
2018-07-24T22:06:11.604Z,3.40
2018-07-24T22:08:40.073Z,2.90
2018-07-24T22:11:09.575Z,2.97
2018-07-24T22:13:37.941Z,3.07
2018-07-24T22:16:06.324Z,3.23
2018-07-24T22:18:34.671Z,3.50
2018-07-24T22:21:03.074Z,3.40
2018-07-24T22:23:31.428Z,3.33
2018-07-24T22:25:59.775Z,3.10
2018-07-24T22:28:28.119Z,3.50
2018-07-24T22:30:56.449Z,3.40
2018-07-24T22:33:24.765Z,3.53
2018-07-24T22:35:53.064Z,3.27
2018-07-24T22:38:21.404Z,3.33
2018-07-24T22:40:49.760Z,3.53
2018-07-24T22:43:19.603Z,3.00
2018-07-24T22:45:47.966Z,3.07
2018-07-24T22:48:16.067Z,3.37
2018-07-24T22:50:44.417Z,3.30
2018-07-24T22:53:12.797Z,3.27
2018-07-24T22:55:41.138Z,3.43
2018-07-24T22:58:09.420Z,3.30
2018-07-24T23:00:37.797Z,3.37
2018-07-24T23:03:06.444Z,3.20
2018-07-24T23:05:34.893Z,3.10
2018-07-24T23:08:03.411Z,3.17
2018-07-24T23:10:32.307Z,3.33
2018-07-24T23:13:02.124Z,3.60
2018-07-24T23:15:30.514Z,3.57
2018-07-24T23:17:58.861Z,4.30
2018-07-24T23:20:27.989Z,4.20
2018-07-24T23:22:56.354Z,4.13
2018-07-24T23:25:24.954Z,3.80
2018-07-24T23:27:53.663Z,3.80
2018-07-24T23:30:21.995Z,3.63
2018-07-24T23:32:50.298Z,3.30
2018-07-24T23:35:18.626Z,3.40
2018-07-24T23:37:46.982Z,3.30
2018-07-24T23:40:15.292Z,3.60
2018-07-24T23:42:43.649Z,3.13
2018-07-24T23:45:12.023Z,3.30
2018-07-24T23:47:40.366Z,3.60
2018-07-24T23:50:08.925Z,3.10
2018-07-24T23:52:37.249Z,3.30
2018-07-24T23:55:05.754Z,3.33
2018-07-24T23:57:34.085Z,3.33
